Time;durP1;ratioP1;P1;durP2;ratioP2;P2;SDS_P1;SDS_P2;PMS_P1;PMS_P2;Temp;Humidity;BMP_temperature;BMP_pressure;BME280_temperature;BME280_humidity;BME280_pressure;Samples;Min_cycle;Max_cycle;Signal;HPM_P1;HPM_P2
2022/07/11 00:00:09;;;;;;;3.90;1.00;;;15.20;99.90;;;;;;4794279;29;20521;-67
2022/07/11 00:02:40;;;;;;;5.70;1.42;;;15.30;99.90;;;;;;4814969;29;20082;-65
2022/07/11 00:05:09;;;;;;;4.80;1.42;;;15.30;99.90;;;;;;4815268;29;20050;-65
2022/07/11 00:07:37;;;;;;;3.00;1.20;;;15.30;99.90;;;;;;4803464;29;20431;-65
2022/07/11 00:10:05;;;;;;;4.03;1.75;;;15.30;99.90;;;;;;4820025;29;20103;-65
2022/07/11 00:12:33;;;;;;;6.15;1.55;;;15.30;99.90;;;;;;4820245;29;20058;-65
2022/07/11 00:15:00;;;;;;;2.33;1.00;;;15.30;99.90;;;;;;4816966;29;20064;-66
2022/07/11 00:17:29;;;;;;;4.35;1.83;;;15.20;99.90;;;;;;4787023;29;20051;-65
2022/07/11 00:19:58;;;;;;;9.77;1.33;;;15.20;99.90;;;;;;4818754;29;20046;-67
2022/07/11 00:22:26;;;;;;;4.22;1.27;;;15.20;99.90;;;;;;4804745;29;20524;-65
2022/07/11 00:24:53;;;;;;;3.42;1.33;;;15.10;99.90;;;;;;4815811;29;20367;-66
2022/07/11 00:27:20;;;;;;;3.42;1.40;;;15.10;99.90;;;;;;4815395;29;20051;-65
2022/07/11 00:29:47;;;;;;;2.20;1.20;;;15.10;99.90;;;;;;4818631;29;20113;-65
2022/07/11 00:32:15;;;;;;;4.93;1.23;;;15.00;99.90;;;;;;4806175;29;20192;-66
2022/07/11 00:34:42;;;;;;;3.13;1.40;;;15.10;99.90;;;;;;4803208;29;20051;-68
2022/07/11 00:37:12;;;;;;;4.00;1.40;;;15.10;99.90;;;;;;4786571;29;20057;-65
2022/07/11 00:39:40;;;;;;;5.10;1.25;;;15.00;99.90;;;;;;4793071;29;20078;-65
2022/07/11 00:42:10;;;;;;;6.55;1.58;;;15.00;99.90;;;;;;4792470;29;20498;-65
2022/07/11 00:44:37;;;;;;;2.85;1.23;;;15.00;99.90;;;;;;4794801;29;20736;-66
2022/07/11 00:47:05;;;;;;;3.67;1.42;;;15.00;99.90;;;;;;4818597;29;20475;-65
2022/07/11 00:49:32;;;;;;;5.05;1.38;;;15.00;99.90;;;;;;4820239;29;20051;-66
2022/07/11 00:51:59;;;;;;;5.90;1.30;;;15.10;99.90;;;;;;4819910;29;20059;-66
2022/07/11 00:54:28;;;;;;;5.35;1.30;;;15.10;99.90;;;;;;4804064;29;20058;-66
2022/07/11 00:56:56;;;;;;;4.18;1.60;;;15.10;99.90;;;;;;4810631;29;20050;-66
2022/07/11 00:59:23;;;;;;;5.15;1.30;;;15.10;99.90;;;;;;4803831;29;20107;-68
2022/07/11 01:01:50;;;;;;;4.72;1.58;;;15.20;99.90;;;;;;4802033;29;20042;-65
2022/07/11 01:04:19;;;;;;;4.00;1.42;;;15.20;99.90;;;;;;4804079;29;20053;-66
2022/07/11 01:06:46;;;;;;;5.32;1.63;;;15.20;99.90;;;;;;4797912;29;20072;-65
2022/07/11 01:09:14;;;;;;;6.85;1.60;;;15.30;99.90;;;;;;4797090;29;20077;-64
2022/07/11 01:11:42;;;;;;;4.88;1.63;;;15.30;99.90;;;;;;4819098;29;20714;-66
2022/07/11 01:14:09;;;;;;;5.88;1.83;;;15.20;99.90;;;;;;4820294;29;20050;-66
2022/07/11 01:16:36;;;;;;;4.10;1.45;;;15.30;99.90;;;;;;4819139;29;20054;-66
2022/07/11 01:19:04;;;;;;;6.78;1.40;;;15.30;99.90;;;;;;4811314;29;20175;-66
2022/07/11 01:21:39;;;;;;;4.35;1.23;;;15.30;99.90;;;;;;4820553;29;20455;-66
2022/07/11 01:24:08;;;;;;;5.65;1.70;;;15.30;99.90;;;;;;4812422;29;20039;-66
2022/07/11 01:26:36;;;;;;;4.18;1.40;;;15.30;99.90;;;;;;4808993;29;20449;-66
2022/07/11 01:29:11;;;;;;;2.58;1.20;;;15.30;99.90;;;;;;4801700;29;20499;-67
2022/07/11 01:31:42;;;;;;;4.03;1.23;;;15.30;99.90;;;;;;4801953;29;20062;-66
2022/07/11 01:34:10;;;;;;;3.30;1.30;;;15.40;99.90;;;;;;4823032;29;20597;-66
2022/07/11 01:36:38;;;;;;;4.45;1.60;;;15.40;99.90;;;;;;4803390;29;20517;-66
2022/07/11 01:39:05;;;;;;;3.72;1.17;;;15.50;99.90;;;;;;4802791;29;20054;-66
2022/07/11 01:41:32;;;;;;;2.78;1.45;;;15.40;99.90;;;;;;4833809;29;20050;-66
2022/07/11 01:44:00;;;;;;;4.30;1.40;;;15.50;99.90;;;;;;4818847;29;20107;-67
2022/07/11 01:46:27;;;;;;;5.32;1.45;;;15.40;99.90;;;;;;4803544;29;20421;-67
2022/07/11 01:48:55;;;;;;;3.88;1.50;;;15.40;99.90;;;;;;4820308;29;20047;-67
2022/07/11 01:51:24;;;;;;;3.95;1.50;;;15.40;99.90;;;;;;4800693;29;20115;-67
2022/07/11 01:53:54;;;;;;;3.75;1.50;;;15.40;99.90;;;;;;4810475;29;20054;-67
2022/07/11 01:56:22;;;;;;;5.38;1.33;;;15.30;99.90;;;;;;4802817;29;20054;-67
2022/07/11 01:58:59;;;;;;;5.60;1.40;;;15.20;99.90;;;;;;4819694;29;20521;-65
2022/07/11 02:01:27;;;;;;;4.80;1.40;;;15.20;99.90;;;;;;4819015;29;20053;-66
2022/07/11 02:03:55;;;;;;;3.60;1.58;;;15.20;99.90;;;;;;4802733;29;20077;-67
2022/07/11 02:06:22;;;;;;;3.67;1.30;;;15.20;99.90;;;;;;4803066;29;20042;-66
2022/07/11 02:08:49;;;;;;;5.88;1.73;;;15.20;99.90;;;;;;4802970;29;20050;-66
2022/07/11 02:11:17;;;;;;;7.03;1.60;;;15.20;99.90;;;;;;4819765;29;20046;-66
2022/07/11 02:13:44;;;;;;;5.22;1.50;;;15.20;99.90;;;;;;4815924;29;20134;-66
2022/07/11 02:16:12;;;;;;;5.43;1.48;;;15.20;99.90;;;;;;4816729;29;20082;-66
2022/07/11 02:18:39;;;;;;;6.45;1.30;;;15.30;99.90;;;;;;4808201;29;20581;-65
2022/07/11 02:21:07;;;;;;;7.50;1.30;;;15.30;99.90;;;;;;4815379;29;20507;-65
2022/07/11 02:23:35;;;;;;;2.28;1.10;;;15.30;99.90;;;;;;4818456;29;20366;-66
2022/07/11 02:26:02;;;;;;;3.47;1.42;;;15.30;99.90;;;;;;4812980;29;20431;-66
2022/07/11 02:28:29;;;;;;;2.75;1.27;;;15.30;99.90;;;;;;4817097;29;20085;-66
2022/07/11 02:30:57;;;;;;;3.25;1.30;;;15.30;99.90;;;;;;4813082;29;20369;-66
2022/07/11 02:33:24;;;;;;;5.53;1.38;;;15.30;99.90;;;;;;4799796;29;20047;-65
2022/07/11 02:35:51;;;;;;;5.85;1.60;;;15.30;99.90;;;;;;4817134;29;20560;-66
2022/07/11 02:38:19;;;;;;;5.28;1.33;;;15.30;99.90;;;;;;4817721;29;20505;-65
2022/07/11 02:40:47;;;;;;;5.75;1.73;;;15.30;99.90;;;;;;4819058;29;20153;-66
2022/07/11 02:43:15;;;;;;;3.70;1.42;;;15.20;99.90;;;;;;4802913;29;20518;-65
2022/07/11 02:45:43;;;;;;;4.40;1.63;;;15.20;99.90;;;;;;4818891;29;20767;-65
2022/07/11 02:48:10;;;;;;;4.70;1.50;;;15.30;99.90;;;;;;4817966;29;20051;-66
2022/07/11 02:50:38;;;;;;;3.03;1.30;;;15.30;99.90;;;;;;4812572;29;20038;-66
2022/07/11 02:53:05;;;;;;;3.78;1.50;;;15.20;99.90;;;;;;4818624;29;20133;-66
2022/07/11 02:55:32;;;;;;;6.60;1.60;;;15.20;99.90;;;;;;4816632;29;20518;-67
2022/07/11 02:57:59;;;;;;;6.32;1.63;;;15.20;99.90;;;;;;4801798;29;20042;-65
2022/07/11 03:00:27;;;;;;;3.90;1.70;;;15.20;99.90;;;;;;4800452;29;20066;-66
2022/07/11 03:02:54;;;;;;;3.72;1.40;;;15.20;99.90;;;;;;4802533;29;20054;-66
2022/07/11 03:05:22;;;;;;;2.97;1.70;;;15.20;99.90;;;;;;4820473;29;20136;-66
2022/07/11 03:07:49;;;;;;;5.43;1.80;;;15.20;99.90;;;;;;4821875;29;20077;-65
2022/07/11 03:10:17;;;;;;;4.38;1.80;;;15.20;99.90;;;;;;4821682;29;20134;-66
2022/07/11 03:12:45;;;;;;;4.40;1.65;;;15.20;99.90;;;;;;4806093;29;20540;-66
2022/07/11 03:15:12;;;;;;;3.13;1.45;;;15.20;99.90;;;;;;4822424;29;20138;-68
2022/07/11 03:17:39;;;;;;;4.43;1.38;;;15.20;99.90;;;;;;4821172;29;20586;-66
2022/07/11 03:20:08;;;;;;;6.20;1.75;;;15.30;99.90;;;;;;4822071;29;20061;-67
2022/07/11 03:22:36;;;;;;;3.92;1.55;;;15.20;99.90;;;;;;4821757;29;20051;-65
2022/07/11 03:25:05;;;;;;;4.85;1.75;;;15.30;99.90;;;;;;4806019;29;20061;-66
2022/07/11 03:27:33;;;;;;;4.15;1.60;;;15.30;99.90;;;;;;4820760;29;20116;-67
2022/07/11 03:30:01;;;;;;;5.13;1.58;;;15.30;99.90;;;;;;4822057;29;20497;-65
2022/07/11 03:32:29;;;;;;;3.58;1.52;;;15.40;99.90;;;;;;4790340;29;20483;-65
2022/07/11 03:37:42;;;;;;;5.90;1.98;;;15.20;99.90;;;;;;4820814;29;20050;-66
2022/07/11 03:40:10;;;;;;;8.07;1.98;;;15.30;99.90;;;;;;4821716;29;20058;-64
2022/07/11 03:42:37;;;;;;;4.35;1.85;;;15.10;99.90;;;;;;4819922;29;20158;-66
2022/07/11 03:45:05;;;;;;;5.25;1.70;;;15.00;99.90;;;;;;4821445;29;20074;-65
2022/07/11 03:47:32;;;;;;;7.30;1.90;;;15.00;99.90;;;;;;4818087;29;20521;-66
2022/07/11 03:50:00;;;;;;;4.38;1.83;;;15.00;99.90;;;;;;4820750;29;20046;-66
2022/07/11 03:52:28;;;;;;;3.38;1.70;;;15.00;99.90;;;;;;4804775;29;20063;-65
2022/07/11 03:54:55;;;;;;;5.82;1.80;;;15.10;99.90;;;;;;4830393;29;20054;-65
2022/07/11 03:57:22;;;;;;;3.70;1.45;;;15.00;99.90;;;;;;4812804;29;20422;-66
2022/07/11 03:59:50;;;;;;;3.22;1.60;;;15.00;99.90;;;;;;4809893;29;20046;-66
2022/07/11 04:02:17;;;;;;;4.78;1.65;;;15.00;99.90;;;;;;4814058;29;20576;-66
2022/07/11 04:04:44;;;;;;;7.85;1.60;;;15.10;99.90;;;;;;4809048;29;20045;-68
2022/07/11 04:07:12;;;;;;;3.33;1.80;;;15.00;99.90;;;;;;4813355;29;20490;-67
2022/07/11 04:09:39;;;;;;;6.20;2.22;;;15.10;99.90;;;;;;4812947;29;20054;-67
2022/07/11 04:12:07;;;;;;;4.88;1.85;;;15.10;99.90;;;;;;4821255;29;20134;-67
2022/07/11 04:14:34;;;;;;;7.15;2.08;;;15.20;99.90;;;;;;4814240;29;20136;-67
2022/07/11 04:17:01;;;;;;;5.32;2.50;;;15.20;99.90;;;;;;4809099;29;20133;-66
2022/07/11 04:19:29;;;;;;;4.80;1.88;;;15.20;99.90;;;;;;4815510;29;20526;-67
2022/07/11 04:21:58;;;;;;;5.28;2.38;;;15.30;99.90;;;;;;4811073;29;20570;-67
2022/07/11 04:24:25;;;;;;;4.90;2.42;;;15.30;99.90;;;;;;4790934;29;20043;-67
2022/07/11 04:26:52;;;;;;;5.80;2.58;;;15.40;99.90;;;;;;4806330;29;20127;-67
2022/07/11 04:29:20;;;;;;;6.40;2.75;;;15.40;99.90;;;;;;4806881;29;20418;-67
2022/07/11 04:31:47;;;;;;;7.93;3.40;;;15.50;99.90;;;;;;4802475;29;20640;-67
2022/07/11 04:34:14;;;;;;;6.10;2.25;;;15.60;99.90;;;;;;4802722;29;20053;-68
2022/07/11 04:36:42;;;;;;;5.28;2.20;;;15.60;99.90;;;;;;4802764;29;20527;-66
2022/07/11 04:39:09;;;;;;;6.35;2.03;;;15.60;99.90;;;;;;4808377;29;20516;-66
2022/07/11 04:41:37;;;;;;;5.70;1.90;;;15.80;99.90;;;;;;4806729;29;20055;-67
2022/07/11 04:44:04;;;;;;;6.38;2.40;;;15.90;99.90;;;;;;4803259;29;20558;-67
2022/07/11 04:46:32;;;;;;;7.93;2.22;;;15.90;99.90;;;;;;4809718;29;20413;-66
2022/07/11 04:48:59;;;;;;;5.63;2.03;;;16.00;99.90;;;;;;4820670;29;20084;-68
2022/07/11 04:51:26;;;;;;;5.30;1.88;;;16.10;99.90;;;;;;4818359;29;20050;-67
2022/07/11 04:53:54;;;;;;;5.57;1.98;;;16.20;99.90;;;;;;4791692;29;20477;-67
2022/07/11 04:56:21;;;;;;;6.00;2.13;;;16.20;99.90;;;;;;4819088;29;20500;-67
2022/07/11 04:58:48;;;;;;;8.00;3.92;;;16.30;99.90;;;;;;4808403;29;20058;-66
2022/07/11 05:01:15;;;;;;;5.63;2.08;;;16.30;99.90;;;;;;4817611;29;20522;-66
2022/07/11 05:03:44;;;;;;;4.80;1.90;;;16.50;99.90;;;;;;4814443;29;20402;-66
2022/07/11 05:06:12;;;;;;;7.15;2.20;;;16.60;99.90;;;;;;4800660;29;20543;-68
2022/07/11 05:08:40;;;;;;;4.03;2.72;;;16.60;99.90;;;;;;4801920;29;20058;-68
2022/07/11 05:11:07;;;;;;;5.65;2.20;;;16.70;99.90;;;;;;4800091;29;20062;-67
2022/07/11 05:13:35;;;;;;;5.50;1.80;;;16.50;99.90;;;;;;4807968;29;20057;-67
2022/07/11 05:16:03;;;;;;;4.00;2.13;;;16.40;99.90;;;;;;4806781;29;20145;-67
2022/07/11 05:18:30;;;;;;;4.30;1.90;;;16.50;99.90;;;;;;4803512;29;20510;-68
2022/07/11 05:20:58;;;;;;;4.55;1.77;;;16.60;99.90;;;;;;4809455;29;20057;-66
2022/07/11 05:23:25;;;;;;;4.57;2.00;;;16.80;99.90;;;;;;4815128;29;20085;-68
2022/07/11 05:25:53;;;;;;;2.95;1.50;;;16.60;99.90;;;;;;4804413;29;20042;-66
2022/07/11 05:28:20;;;;;;;3.78;1.80;;;16.60;99.90;;;;;;4803805;29;20134;-67
2022/07/11 05:30:47;;;;;;;3.70;1.63;;;16.60;99.90;;;;;;4801523;29;20054;-66
2022/07/11 05:33:15;;;;;;;4.75;1.90;;;16.70;99.90;;;;;;4809886;29;20433;-66
2022/07/11 05:35:42;;;;;;;5.65;2.28;;;16.70;99.90;;;;;;4797199;29;20058;-66
2022/07/11 05:38:09;;;;;;;4.72;2.00;;;16.60;99.90;;;;;;4810176;29;20450;-67
2022/07/11 05:40:36;;;;;;;4.40;2.10;;;16.60;99.90;;;;;;4818671;29;20604;-66
2022/07/11 05:43:04;;;;;;;3.85;2.08;;;16.50;99.90;;;;;;4813543;29;20557;-66
2022/07/11 05:45:31;;;;;;;4.65;2.38;;;16.40;99.90;;;;;;4801645;29;20055;-65
2022/07/11 05:47:58;;;;;;;5.70;2.25;;;16.40;99.90;;;;;;4797076;29;20070;-66
2022/07/11 05:50:26;;;;;;;3.92;2.10;;;16.30;99.90;;;;;;4804727;29;20544;-67
2022/07/11 05:52:57;;;;;;;4.13;2.00;;;16.20;99.90;;;;;;4805937;29;20535;-65
2022/07/11 05:55:24;;;;;;;4.57;1.90;;;16.30;99.90;;;;;;4802879;29;20050;-65
2022/07/11 05:57:51;;;;;;;3.55;2.00;;;16.10;99.90;;;;;;4798422;29;20160;-66
2022/07/11 06:00:19;;;;;;;3.83;2.10;;;16.10;99.90;;;;;;4802924;29;20090;-66
2022/07/11 06:02:47;;;;;;;4.30;2.20;;;16.00;99.90;;;;;;4803685;29;20493;-65
2022/07/11 06:05:14;;;;;;;6.43;2.40;;;15.90;99.90;;;;;;4811329;29;20042;-67
2022/07/11 06:10:27;;;;;;;4.22;2.20;;;16.00;99.90;;;;;;4813915;29;20050;-66
2022/07/11 06:12:55;;;;;;;4.85;2.50;;;16.00;99.90;;;;;;4810486;29;20059;-66
2022/07/11 06:15:23;;;;;;;4.05;2.33;;;16.00;99.90;;;;;;4798388;29;20589;-66
2022/07/11 06:17:50;;;;;;;4.85;2.47;;;16.20;99.90;;;;;;4812861;29;20053;-66
2022/07/11 06:20:18;;;;;;;4.55;2.60;;;16.40;99.90;;;;;;4809422;29;20057;-66
2022/07/11 06:22:46;;;;;;;4.25;2.55;;;16.40;99.90;;;;;;4787795;29;20123;-67
2022/07/11 06:25:13;;;;;;;5.80;2.40;;;16.60;99.90;;;;;;4803007;29;20045;-66
2022/07/11 06:27:40;;;;;;;6.05;3.03;;;16.70;99.90;;;;;;4806987;29;20395;-68
2022/07/11 06:30:08;;;;;;;4.13;2.35;;;16.70;99.90;;;;;;4800501;29;20050;-66
2022/07/11 06:32:35;;;;;;;4.22;1.90;;;16.90;99.90;;;;;;4831320;29;20055;-68
2022/07/11 06:35:03;;;;;;;5.10;2.00;;;17.10;99.90;;;;;;4808745;29;20051;-68
2022/07/11 06:37:30;;;;;;;4.88;1.98;;;17.30;99.90;;;;;;4800020;29;20062;-67
2022/07/11 06:39:59;;;;;;;2.90;1.48;;;17.50;99.90;;;;;;4834256;29;20062;-67
2022/07/11 06:42:26;;;;;;;3.85;1.98;;;17.70;99.90;;;;;;4815761;29;20051;-67
2022/07/11 06:44:55;;;;;;;5.32;1.75;;;17.90;99.90;;;;;;4812498;29;20417;-66
2022/07/11 06:47:22;;;;;;;4.13;2.03;;;18.00;99.90;;;;;;4823035;29;20066;-67
2022/07/11 06:49:49;;;;;;;4.30;1.80;;;17.90;99.90;;;;;;4812479;29;20113;-67
2022/07/11 06:52:17;;;;;;;4.95;1.65;;;18.10;99.90;;;;;;4816587;29;20499;-66
2022/07/11 06:54:44;;;;;;;2.35;1.40;;;18.10;99.90;;;;;;4805623;29;20046;-67
2022/07/11 06:57:11;;;;;;;2.72;1.50;;;18.30;99.90;;;;;;4813925;29;20149;-66
2022/07/11 06:59:39;;;;;;;2.42;1.30;;;18.70;99.90;;;;;;4816605;29;20510;-66
2022/07/11 07:02:06;;;;;;;3.42;1.50;;;18.50;99.90;;;;;;4823149;29;20079;-67
2022/07/11 07:04:34;;;;;;;2.72;1.33;;;18.50;99.90;;;;;;4802485;29;20414;-68
2022/07/11 07:07:02;;;;;;;4.13;1.75;;;18.70;99.90;;;;;;4802937;29;20772;-67
2022/07/11 07:09:29;;;;;;;5.72;1.90;;;18.90;99.90;;;;;;4814218;29;20077;-67
2022/07/11 07:11:57;;;;;;;5.28;1.77;;;18.90;99.90;;;;;;4812836;29;20053;-67
2022/07/11 07:14:25;;;;;;;2.70;1.45;;;18.80;99.90;;;;;;4800275;29;20608;-67
2022/07/11 07:16:52;;;;;;;2.75;1.20;;;18.60;99.90;;;;;;4814087;29;20129;-67
2022/07/11 07:19:20;;;;;;;2.78;1.30;;;18.70;99.90;;;;;;4798995;29;20438;-67
2022/07/11 07:21:48;;;;;;;4.60;1.80;;;18.60;99.90;;;;;;4814400;29;20042;-68
2022/07/11 07:24:15;;;;;;;2.25;1.08;;;18.70;99.90;;;;;;4819625;29;20112;-68
2022/07/11 07:26:44;;;;;;;2.95;1.30;;;18.70;99.90;;;;;;4807313;29;20050;-67
2022/07/11 07:29:12;;;;;;;1.73;1.10;;;18.70;99.90;;;;;;4822304;29;20072;-67
2022/07/11 07:31:40;;;;;;;3.63;1.30;;;18.50;99.90;;;;;;4825496;29;20133;-68
2022/07/11 07:34:08;;;;;;;3.40;1.10;;;18.50;99.90;;;;;;4800413;29;20642;-67
2022/07/11 07:36:36;;;;;;;5.22;2.58;;;18.20;99.90;;;;;;4804899;29;20511;-67
2022/07/11 07:39:03;;;;;;;3.88;1.45;;;18.40;99.90;;;;;;4806614;29;20057;-67
2022/07/11 07:41:31;;;;;;;2.28;1.10;;;18.40;99.90;;;;;;4813736;29;20468;-68
2022/07/11 07:43:58;;;;;;;2.03;1.08;;;18.70;99.90;;;;;;4820220;29;20512;-68
2022/07/11 07:46:26;;;;;;;3.30;1.02;;;18.90;99.90;;;;;;4807468;29;20510;-67
2022/07/11 07:48:53;;;;;;;2.45;1.20;;;18.80;99.90;;;;;;4805103;29;20043;-67
2022/07/11 07:51:21;;;;;;;3.50;1.10;;;18.90;99.90;;;;;;4820516;29;20047;-68
2022/07/11 07:53:49;;;;;;;3.53;1.35;;;18.80;99.90;;;;;;4813900;29;20050;-67
2022/07/11 07:56:22;;;;;;;3.42;1.10;;;18.90;99.90;;;;;;4798866;29;20076;-68
2022/07/11 07:58:51;;;;;;;2.67;1.00;;;18.80;99.90;;;;;;4787570;29;20117;-68
2022/07/11 08:01:38;;;;;;;1.45;0.93;;;18.90;99.90;;;;;;4818293;29;20518;-68
2022/07/11 08:04:08;;;;;;;1.58;0.82;;;18.80;99.90;;;;;;4808238;29;20046;-67
2022/07/11 08:06:36;;;;;;;1.35;0.90;;;18.80;99.90;;;;;;4806894;29;20199;-68
2022/07/11 08:09:05;;;;;;;3.05;1.48;;;19.00;99.90;;;;;;4820108;29;20047;-67
2022/07/11 08:11:33;;;;;;;2.72;1.05;;;19.30;99.90;;;;;;4787464;29;20074;-68
2022/07/11 08:14:02;;;;;;;2.08;1.05;;;19.50;99.90;;;;;;4802730;29;20058;-68
2022/07/11 08:16:31;;;;;;;3.50;1.10;;;19.70;99.90;;;;;;4818245;29;20107;-68
2022/07/11 08:19:00;;;;;;;4.07;0.95;;;19.60;99.90;;;;;;4807034;29;20054;-68
2022/07/11 08:21:28;;;;;;;2.17;0.90;;;19.50;99.90;;;;;;4799496;29;20074;-66
2022/07/11 08:23:56;;;;;;;3.20;0.82;;;19.50;99.90;;;;;;4810024;29;20108;-66
2022/07/11 08:26:24;;;;;;;3.65;0.65;;;19.30;99.90;;;;;;4815563;29;20118;-67
2022/07/11 08:29:00;;;;;;;2.60;0.82;;;18.90;99.90;;;;;;4805770;29;20047;-67
2022/07/11 08:31:27;;;;;;;4.20;0.98;;;19.10;99.90;;;;;;4812021;29;20051;-67
2022/07/11 08:33:57;;;;;;;3.95;0.95;;;19.10;99.90;;;;;;4807323;29;20115;-67
2022/07/11 08:36:24;;;;;;;4.32;1.10;;;19.00;99.90;;;;;;4798012;29;20058;-67
2022/07/11 08:38:52;;;;;;;2.00;1.02;;;19.00;99.90;;;;;;4814280;29;20077;-67
2022/07/11 08:41:19;;;;;;;3.25;1.10;;;19.00;99.90;;;;;;4833318;29;20137;-68
2022/07/11 08:43:49;;;;;;;3.00;0.98;;;18.80;99.90;;;;;;4806792;29;20050;-68
2022/07/11 08:46:17;;;;;;;2.05;1.00;;;18.80;99.90;;;;;;4818505;29;20053;-69
2022/07/11 08:48:46;;;;;;;3.35;1.55;;;18.80;99.90;;;;;;4823835;29;20129;-68
2022/07/11 08:51:13;;;;;;;3.53;0.85;;;18.70;99.90;;;;;;4821483;29;20077;-68
2022/07/11 08:53:44;;;;;;;5.07;1.30;;;18.80;99.90;;;;;;4802128;29;20066;-69
2022/07/11 08:56:20;;;;;;;1.83;0.98;;;18.80;99.90;;;;;;4814779;29;20069;-68
2022/07/11 08:58:48;;;;;;;2.65;1.00;;;18.80;99.90;;;;;;4810646;29;20376;-68
2022/07/11 09:01:30;;;;;;;7.72;1.33;;;18.80;99.90;;;;;;4813307;29;20046;-68
2022/07/11 09:03:59;;;;;;;2.38;0.95;;;18.60;99.90;;;;;;4810191;29;20425;-68
2022/07/11 09:06:27;;;;;;;2.17;1.00;;;18.60;99.90;;;;;;4817943;29;20169;-67
2022/07/11 09:09:01;;;;;;;2.53;1.00;;;18.60;99.90;;;;;;4817696;29;20065;-68
2022/07/11 09:11:48;;;;;;;4.93;1.15;;;18.50;99.90;;;;;;4813747;29;20073;-66
2022/07/11 09:14:30;;;;;;;2.33;1.23;;;18.40;99.90;;;;;;4795031;29;20056;-68
2022/07/11 09:16:59;;;;;;;2.38;1.10;;;18.00;99.90;;;;;;4827626;29;20053;-68
2022/07/11 09:19:36;;;;;;;2.58;1.20;;;17.80;99.90;;;;;;4813048;29;20139;-68
2022/07/11 09:28:08;;;;;;;3.45;1.50;;;17.50;99.90;;;;;;4799417;29;20094;-68
2022/07/11 09:30:43;;;;;;;3.42;1.38;;;17.50;99.90;;;;;;4816127;29;20154;-69
2022/07/11 09:33:12;;;;;;;3.50;1.35;;;17.50;99.90;;;;;;4785186;29;20064;-68
2022/07/11 09:35:41;;;;;;;2.63;1.20;;;17.80;99.90;;;;;;4804074;29;20043;-68
2022/07/11 09:38:11;;;;;;;10.48;5.18;;;18.20;99.90;;;;;;4809877;29;20469;-68
2022/07/11 09:40:42;;;;;;;3.83;1.80;;;18.60;99.90;;;;;;4812006;29;20544;-68
2022/07/11 09:43:10;;;;;;;2.70;1.40;;;19.20;99.90;;;;;;4801523;29;20052;-68
2022/07/11 09:45:37;;;;;;;4.65;1.30;;;19.80;99.90;;;;;;4814232;29;20409;-69
2022/07/11 09:48:10;;;;;;;3.30;1.17;;;20.40;99.90;;;;;;4818382;29;20069;-66
2022/07/11 09:50:42;;;;;;;2.85;1.20;;;21.10;99.90;;;;;;4819464;29;20042;-67
2022/07/11 09:53:11;;;;;;;2.85;1.10;;;21.40;99.90;;;;;;4812784;29;20069;-67
2022/07/11 09:55:46;;;;;;;1.92;0.98;;;21.70;99.90;;;;;;4820635;29;20051;-67
2022/07/11 09:58:21;;;;;;;1.80;1.00;;;22.00;99.90;;;;;;4804439;29;20138;-67
2022/07/11 10:00:51;;;;;;;1.15;0.70;;;22.20;99.90;;;;;;4819964;29;20589;-68
2022/07/11 10:03:22;;;;;;;1.70;0.90;;;22.50;99.90;;;;;;4807505;29;20043;-68
2022/07/11 10:06:09;;;;;;;2.72;0.90;;;22.60;99.90;;;;;;4819001;29;20554;-68
2022/07/11 10:08:36;;;;;;;1.45;0.93;;;22.40;99.90;;;;;;4819736;29;20186;-67
2022/07/11 10:11:04;;;;;;;2.20;0.93;;;21.90;99.90;;;;;;4819887;29;20379;-68
2022/07/11 10:13:32;;;;;;;2.47;1.00;;;21.50;99.90;;;;;;4818914;29;20054;-68
2022/07/11 10:16:03;;;;;;;2.47;1.10;;;21.20;99.90;;;;;;4818395;29;20047;-68
2022/07/11 10:18:44;;;;;;;2.77;0.90;;;20.90;99.90;;;;;;4803072;29;20522;-69
2022/07/11 10:21:17;;;;;;;2.57;1.10;;;20.60;99.90;;;;;;4820057;29;20740;-68
2022/07/11 10:24:08;;;;;;;1.67;0.95;;;20.40;99.90;;;;;;4812595;29;20323;-68
2022/07/11 10:27:00;;;;;;;1.88;1.13;;;20.20;99.90;;;;;;4801408;29;20082;-68
2022/07/11 10:29:47;;;;;;;2.10;1.00;;;19.50;99.90;;;;;;4811599;29;20149;-68
2022/07/11 10:32:15;;;;;;;3.10;1.52;;;19.30;99.90;;;;;;4803266;29;20442;-68
2022/07/11 10:34:43;;;;;;;1.27;0.80;;;19.00;99.90;;;;;;4809130;29;20050;-68
2022/07/11 10:37:12;;;;;;;2.53;1.10;;;19.00;99.90;;;;;;4814472;29;20384;-68
2022/07/11 10:39:57;;;;;;;2.97;0.90;;;18.80;99.90;;;;;;4818432;29;20058;-68
2022/07/11 10:42:41;;;;;;;2.20;1.02;;;18.50;99.90;;;;;;4813112;29;20081;-68
2022/07/11 10:45:10;;;;;;;1.85;1.10;;;18.60;99.90;;;;;;4808699;29;20042;-69
2022/07/11 10:47:44;;;;;;;1.52;0.90;;;18.70;99.90;;;;;;4817583;29;20447;-69
2022/07/11 10:50:40;;;;;;;2.30;1.20;;;18.50;99.90;;;;;;4819270;29;20050;-69
2022/07/11 10:53:09;;;;;;;2.05;1.08;;;18.60;99.90;;;;;;4799334;29;20050;-68
2022/07/11 10:56:14;;;;;;;1.73;1.10;;;18.70;99.90;;;;;;4771721;29;20055;-68
2022/07/11 10:59:16;;;;;;;2.05;0.95;;;18.40;99.90;;;;;;4803320;29;20494;-68
2022/07/11 11:02:11;;;;;;;2.53;1.20;;;18.40;99.90;;;;;;4813983;29;20591;-68
2022/07/11 11:05:00;;;;;;;2.70;0.90;;;18.30;99.90;;;;;;4815867;29;20426;-68
2022/07/11 11:07:38;;;;;;;1.52;0.80;;;18.40;99.90;;;;;;4802987;29;20079;-68
2022/07/11 11:10:16;;;;;;;1.80;1.00;;;18.40;99.90;;;;;;4812383;29;20561;-68
2022/07/11 11:13:06;;;;;;;0.85;0.75;;;18.60;99.90;;;;;;4806807;29;20058;-67
2022/07/11 11:15:41;;;;;;;0.95;0.70;;;19.00;99.90;;;;;;4796783;29;20110;-68
2022/07/11 11:18:24;;;;;;;1.23;0.90;;;19.70;99.90;;;;;;4798421;29;20055;-68
2022/07/11 11:23:35;;;;;;;2.10;0.77;;;21.30;99.90;;;;;;4819066;29;20053;-68
2022/07/11 11:26:18;;;;;;;5.15;1.00;;;22.20;99.90;;;;;;4820744;29;20388;-68
2022/07/11 11:29:01;;;;;;;2.53;1.27;;;23.00;99.90;;;;;;4814918;29;20558;-69
2022/07/11 11:31:30;;;;;;;4.70;1.30;;;23.00;99.90;;;;;;4811364;29;20534;-68
2022/07/11 11:33:59;;;;;;;2.42;0.80;;;22.70;99.90;;;;;;4822117;29;20042;-68
2022/07/11 11:36:27;;;;;;;0.98;0.70;;;22.70;99.90;;;;;;4824776;29;20603;-68
2022/07/11 11:38:55;;;;;;;2.92;1.00;;;22.80;99.90;;;;;;4805072;29;20053;-68
2022/07/11 11:41:25;;;;;;;0.60;0.50;;;22.60;99.90;;;;;;4802158;29;20149;-68
2022/07/11 11:43:54;;;;;;;1.05;0.60;;;22.60;99.90;;;;;;4800607;29;20054;-68
2022/07/11 11:46:33;;;;;;;0.63;0.55;;;22.70;99.90;;;;;;4833818;29;20042;-69
2022/07/11 11:49:03;;;;;;;1.95;0.85;;;22.80;99.90;;;;;;4818471;29;20046;-66
2022/07/11 11:51:32;;;;;;;1.25;0.60;;;22.00;99.90;;;;;;4818142;29;20123;-66
2022/07/11 11:54:02;;;;;;;0.98;0.70;;;22.10;99.90;;;;;;4810687;29;20050;-67
2022/07/11 11:56:32;;;;;;;1.95;0.80;;;22.00;99.90;;;;;;4828251;29;20538;-67
2022/07/11 11:59:04;;;;;;;1.08;0.70;;;21.70;99.90;;;;;;4814130;29;20100;-67
2022/07/11 12:01:39;;;;;;;1.45;0.80;;;21.10;99.90;;;;;;4805012;29;20054;-67
2022/07/11 12:04:11;;;;;;;2.70;0.93;;;20.80;99.90;;;;;;4821262;29;20042;-67
2022/07/11 12:06:40;;;;;;;1.90;0.73;;;20.70;99.90;;;;;;4819005;29;20578;-68
2022/07/11 12:09:09;;;;;;;0.60;0.60;;;21.20;99.90;;;;;;4821322;29;20170;-66
2022/07/11 12:11:45;;;;;;;1.30;0.75;;;21.60;99.90;;;;;;4820233;29;20505;-67
2022/07/11 12:14:14;;;;;;;2.05;0.90;;;22.10;99.90;;;;;;4796516;29;20465;-67
2022/07/11 12:16:46;;;;;;;0.75;0.70;;;21.70;99.90;;;;;;4803812;29;20534;-68
2022/07/11 12:19:22;;;;;;;1.88;0.80;;;22.40;99.90;;;;;;4820326;29;20050;-68
2022/07/11 12:21:54;;;;;;;1.08;0.70;;;22.50;99.90;;;;;;4812931;29;20046;-68
2022/07/11 12:24:29;;;;;;;1.75;0.73;;;22.30;99.90;;;;;;4819928;29;20125;-67
2022/07/11 12:26:57;;;;;;;2.00;0.90;;;22.40;99.90;;;;;;4818086;29;20129;-67
2022/07/11 12:29:27;;;;;;;1.15;0.65;;;22.60;99.90;;;;;;4813680;29;20445;-67
2022/07/11 12:31:56;;;;;;;1.15;0.70;;;23.50;99.90;;;;;;4808874;29;20483;-68
2022/07/11 12:34:44;;;;;;;1.45;0.82;;;23.80;99.90;;;;;;4803047;29;20546;-67
2022/07/11 12:37:17;;;;;;;1.88;0.73;;;23.60;99.90;;;;;;4802295;29;20453;-67
2022/07/11 12:39:51;;;;;;;0.50;0.40;;;24.80;99.90;;;;;;4809951;29;20054;-67
2022/07/11 12:42:33;;;;;;;1.30;0.57;;;25.20;99.90;;;;;;4816457;29;20073;-67
2022/07/11 12:45:07;;;;;;;0.50;0.50;;;25.40;99.90;;;;;;4803457;29;20071;-68
2022/07/11 12:47:39;;;;;;;0.60;0.50;;;25.70;99.90;;;;;;4798291;29;20054;-68
2022/07/11 12:50:16;;;;;;;0.67;0.57;;;25.80;99.90;;;;;;4816797;29;20144;-68
2022/07/11 12:52:49;;;;;;;1.30;0.65;;;24.80;99.90;;;;;;4801096;29;20184;-70
2022/07/11 12:55:22;;;;;;;4.40;2.17;;;24.30;99.90;;;;;;4812105;29;20103;-69
2022/07/11 12:58:18;;;;;;;2.75;1.10;;;24.40;99.90;;;;;;4831678;29;20053;-69
2022/07/11 13:00:59;;;;;;;1.25;0.75;;;24.00;99.90;;;;;;4813553;29;20521;-68
2022/07/11 13:03:33;;;;;;;1.05;0.50;;;24.10;99.90;;;;;;4812594;29;20518;-69
2022/07/11 13:06:02;;;;;;;0.98;0.60;;;24.50;99.90;;;;;;4819541;29;20058;-68
2022/07/11 13:08:42;;;;;;;0.90;0.70;;;25.10;99.90;;;;;;4824201;29;20449;-70
2022/07/11 13:11:19;;;;;;;2.05;0.80;;;25.70;99.90;;;;;;4803956;29;20149;-68
2022/07/11 13:13:48;;;;;;;0.85;0.60;;;26.40;99.90;;;;;;4819454;29;20052;-67
2022/07/11 13:16:18;;;;;;;2.25;0.90;;;26.30;99.90;;;;;;4820716;29;20060;-69